Time;durP1;ratioP1;P1;durP2;ratioP2;P2;SDS_P1;SDS_P2;PMS_P1;PMS_P2;Temp;Humidity;BMP_temperature;BMP_pressure;BME280_temperature;BME280_humidity;BME280_pressure;Samples;Min_cycle;Max_cycle;Signal;HPM_P1;HPM_P2
2022/10/12 00:00:44;;;;;;;15.33;8.37;;;;;;;4.37;100.00;102464.84;5084587;28;20095;-60
2022/10/12 00:03:10;;;;;;;11.63;8.00;;;;;;;4.37;100.00;102461.38;5076155;28;20388;-61
2022/10/12 00:05:36;;;;;;;9.70;7.97;;;;;;;4.36;100.00;102457.00;5067228;28;20435;-61
2022/10/12 00:08:01;;;;;;;11.57;8.47;;;;;;;4.32;100.00;102464.47;5078558;28;20035;-61
2022/10/12 00:10:27;;;;;;;12.83;7.77;;;;;;;4.31;100.00;102459.19;5077666;28;20025;-61
2022/10/12 00:12:52;;;;;;;13.00;8.77;;;;;;;4.33;100.00;102449.97;5076216;28;20034;-62
2022/10/12 00:15:17;;;;;;;10.13;8.07;;;;;;;4.31;100.00;102454.97;5079207;28;20028;-61
2022/10/12 00:17:42;;;;;;;12.97;7.23;;;;;;;4.29;100.00;102448.81;5085164;28;20377;-62
2022/10/12 00:20:08;;;;;;;12.03;7.40;;;;;;;4.29;100.00;102453.94;5070950;28;20028;-60
2022/10/12 00:22:33;;;;;;;10.13;6.87;;;;;;;4.28;100.00;102454.69;5058676;28;20456;-60
2022/10/12 00:24:59;;;;;;;11.73;7.67;;;;;;;4.25;100.00;102446.75;5070729;28;20028;-61
2022/10/12 00:27:24;;;;;;;9.93;7.00;;;;;;;4.23;100.00;102445.72;5071145;28;20489;-61
2022/10/12 00:29:49;;;;;;;10.73;7.17;;;;;;;4.22;100.00;102454.19;5068336;28;20020;-61
2022/10/12 00:32:15;;;;;;;9.23;7.80;;;;;;;4.23;100.00;102453.41;5064705;28;20472;-61
2022/10/12 00:34:40;;;;;;;10.07;7.63;;;;;;;4.21;100.00;102457.50;5073598;28;20049;-61
2022/10/12 00:37:05;;;;;;;10.73;8.13;;;;;;;4.20;100.00;102451.50;5070449;28;20033;-61
2022/10/12 00:39:31;;;;;;;13.73;8.30;;;;;;;4.18;100.00;102447.00;5070391;28;20029;-61
2022/10/12 00:41:56;;;;;;;10.00;7.70;;;;;;;4.17;100.00;102453.78;5072671;28;20064;-61
2022/10/12 00:44:35;;;;;;;9.70;8.23;;;;;;;4.19;100.00;102453.94;5064685;28;20465;-61
2022/10/12 00:47:08;;;;;;;13.63;8.53;;;;;;;4.18;100.00;102452.13;5070232;28;20106;-60
2022/10/12 00:49:34;;;;;;;11.07;6.80;;;;;;;4.18;100.00;102449.56;5064100;28;20028;-61
2022/10/12 00:52:08;;;;;;;12.23;8.03;;;;;;;4.14;100.00;102448.41;5070078;28;20035;-61
2022/10/12 00:54:39;;;;;;;10.87;7.80;;;;;;;4.12;100.00;102451.63;5070524;28;20089;-60
2022/10/12 00:57:06;;;;;;;11.18;7.38;;;;;;;4.11;100.00;102454.94;5084406;28;20156;-61
2022/10/12 00:59:37;;;;;;;9.60;7.60;;;;;;;4.11;100.00;102449.81;5077289;28;20039;-61
2022/10/12 01:02:02;;;;;;;12.65;7.47;;;;;;;4.14;100.00;102455.19;5075891;28;20028;-61
2022/10/12 01:04:30;;;;;;;8.00;6.87;;;;;;;4.13;100.00;102453.41;5084007;28;20069;-62
2022/10/12 01:06:55;;;;;;;9.57;7.00;;;;;;;4.16;100.00;102451.09;5082510;28;20027;-61
2022/10/12 01:09:21;;;;;;;10.20;7.20;;;;;;;4.19;100.00;102459.09;5069884;28;20040;-61
2022/10/12 01:11:47;;;;;;;10.03;6.83;;;;;;;4.22;100.00;102456.78;5081017;28;20027;-61
2022/10/12 01:14:13;;;;;;;7.20;6.33;;;;;;;4.24;100.00;102450.09;5073032;28;20413;-61
2022/10/12 01:16:49;;;;;;;9.73;6.03;;;;;;;4.25;100.00;102448.41;5077636;28;20118;-61
2022/10/12 01:19:33;;;;;;;9.70;6.77;;;;;;;4.24;100.00;102439.84;5075449;28;20490;-61
2022/10/12 01:22:06;;;;;;;9.90;5.93;;;;;;;4.24;100.00;102437.25;5090263;28;20031;-61
2022/10/12 01:24:54;;;;;;;10.50;6.23;;;;;;;4.25;100.00;102430.44;5072223;28;20016;-61
2022/10/12 01:27:39;;;;;;;8.40;6.23;;;;;;;4.24;100.00;102432.13;5068914;28;20113;-61
2022/10/12 01:30:21;;;;;;;7.60;6.77;;;;;;;4.24;100.00;102424.44;5056479;28;20026;-61
2022/10/12 01:33:21;;;;;;;8.83;6.70;;;;;;;4.25;100.00;102412.47;5058945;28;20197;-61
2022/10/12 01:36:04;;;;;;;8.13;6.07;;;;;;;4.26;100.00;102412.63;5083392;28;20028;-61
2022/10/12 01:38:44;;;;;;;11.93;6.67;;;;;;;4.28;100.00;102411.06;5085454;28;20028;-61
2022/10/12 01:41:19;;;;;;;8.50;6.30;;;;;;;4.29;100.00;102412.88;5069511;28;20034;-61
2022/10/12 01:43:45;;;;;;;8.53;5.50;;;;;;;4.27;100.00;102414.41;5061958;28;20023;-61
2022/10/12 01:46:19;;;;;;;8.73;5.33;;;;;;;4.27;100.00;102416.97;5075672;28;20415;-61
2022/10/12 01:48:50;;;;;;;7.03;5.60;;;;;;;4.27;100.00;102411.84;5049565;28;20016;-61
2022/10/12 01:51:23;;;;;;;11.50;6.05;;;;;;;4.29;100.00;102409.41;5074672;28;20032;-61
2022/10/12 01:54:00;;;;;;;7.13;6.20;;;;;;;4.31;100.00;102407.88;5083504;28;20108;-61
2022/10/12 01:56:35;;;;;;;7.97;5.63;;;;;;;4.28;100.00;102405.94;5081947;28;20024;-62
2022/10/12 01:59:11;;;;;;;7.27;5.97;;;;;;;4.24;100.00;102401.34;5076033;28;20254;-61
2022/10/12 02:02:05;;;;;;;7.50;5.77;;;;;;;4.22;100.00;102401.97;5075185;28;20031;-60
2022/10/12 02:04:49;;;;;;;6.67;4.97;;;;;;;4.20;100.00;102400.19;5048332;28;20032;-61
2022/10/12 02:07:47;;;;;;;10.07;5.57;;;;;;;4.20;100.00;102399.28;5069667;28;20016;-61
2022/10/12 02:10:20;;;;;;;6.07;5.20;;;;;;;4.17;100.00;102392.19;5088685;28;20039;-61
2022/10/12 02:12:48;;;;;;;6.67;5.27;;;;;;;4.16;100.00;102392.97;5076089;28;20031;-61
2022/10/12 02:15:15;;;;;;;9.47;5.50;;;;;;;4.15;100.00;102392.88;5075524;28;20025;-61
2022/10/12 02:17:44;;;;;;;7.33;5.47;;;;;;;4.16;100.00;102394.66;5054235;28;20074;-61
2022/10/12 02:20:13;;;;;;;6.93;5.67;;;;;;;4.14;100.00;102388.47;5068863;28;20021;-60
2022/10/12 02:22:41;;;;;;;7.67;6.23;;;;;;;4.13;100.00;102386.69;5068361;28;20020;-60
2022/10/12 02:25:10;;;;;;;9.43;6.20;;;;;;;4.12;100.00;102390.06;5068361;28;20027;-61
2022/10/12 02:27:41;;;;;;;8.33;5.77;;;;;;;4.08;100.00;102384.63;5054549;28;20022;-61
2022/10/12 02:30:07;;;;;;;9.45;5.60;;;;;;;4.06;100.00;102381.06;5058014;28;20033;-61
2022/10/12 02:33:01;;;;;;;8.07;5.43;;;;;;;4.03;100.00;102374.78;5079896;28;20540;-61
2022/10/12 02:35:44;;;;;;;8.73;5.80;;;;;;;4.01;100.00;102379.75;5073692;28;20079;-61
2022/10/12 02:38:19;;;;;;;7.57;5.60;;;;;;;4.02;100.00;102384.16;5068499;28;20043;-61
2022/10/12 02:40:56;;;;;;;8.83;5.23;;;;;;;4.01;100.00;102384.03;5072638;28;20198;-61
2022/10/12 02:43:37;;;;;;;8.03;5.40;;;;;;;3.97;100.00;102377.72;5082098;28;20186;-61
2022/10/12 02:46:04;;;;;;;10.95;5.50;;;;;;;3.99;100.00;102383.91;5068398;28;20074;-61
2022/10/12 02:48:30;;;;;;;6.27;5.20;;;;;;;4.00;100.00;102379.63;5054044;28;20024;-61
2022/10/12 02:50:57;;;;;;;6.00;5.30;;;;;;;3.97;100.00;102381.16;5079317;28;20023;-61
2022/10/12 02:53:26;;;;;;;8.37;5.50;;;;;;;3.95;100.00;102376.69;5065168;28;20028;-61
2022/10/12 02:55:58;;;;;;;8.33;5.70;;;;;;;3.94;100.00;102373.22;5059085;28;20020;-61
2022/10/12 02:58:24;;;;;;;9.77;6.00;;;;;;;3.94;100.00;102369.78;5086001;28;20016;-61
2022/10/12 03:00:50;;;;;;;9.13;5.50;;;;;;;3.90;100.00;102375.41;5088166;28;20034;-61
2022/10/12 03:03:16;;;;;;;7.57;5.90;;;;;;;3.86;100.00;102370.78;5069351;28;20021;-61
2022/10/12 03:05:41;;;;;;;7.70;5.50;;;;;;;3.81;100.00;102368.72;5079564;28;20407;-61
2022/10/12 03:08:06;;;;;;;8.50;5.33;;;;;;;3.80;100.00;102366.94;5054448;28;20481;-61
2022/10/12 03:10:32;;;;;;;9.10;5.30;;;;;;;3.77;100.00;102365.78;5072303;28;20428;-61
2022/10/12 03:12:57;;;;;;;9.43;5.10;;;;;;;3.72;100.00;102368.84;5076222;28;20477;-61
2022/10/12 03:15:22;;;;;;;8.40;4.80;;;;;;;3.70;100.00;102355.03;5081991;28;20051;-61
2022/10/12 03:17:47;;;;;;;8.03;5.70;;;;;;;3.69;100.00;102357.44;5066824;28;20032;-60
2022/10/12 03:20:13;;;;;;;6.87;5.70;;;;;;;3.67;100.00;102359.00;5068798;28;20513;-60
2022/10/12 03:22:38;;;;;;;14.93;6.50;;;;;;;3.63;100.00;102351.81;5080953;28;20035;-61
2022/10/12 03:25:04;;;;;;;8.83;6.10;;;;;;;3.62;100.00;102352.59;5067891;28;20028;-61
2022/10/12 03:27:29;;;;;;;9.20;6.33;;;;;;;3.60;100.00;102361.03;5086180;28;20195;-60
2022/10/12 03:29:54;;;;;;;10.17;6.63;;;;;;;3.57;100.00;102357.31;5076517;28;20107;-61
2022/10/12 03:32:21;;;;;;;11.47;6.80;;;;;;;3.56;100.00;102360.66;5084233;28;20024;-60
2022/10/12 03:34:46;;;;;;;9.03;5.67;;;;;;;3.53;100.00;102356.13;5079058;28;20028;-59
2022/10/12 03:37:11;;;;;;;8.67;5.33;;;;;;;3.52;100.00;102358.56;5068059;28;20384;-61
2022/10/12 03:39:37;;;;;;;10.63;6.13;;;;;;;3.50;100.00;102365.22;5081366;28;20020;-61
2022/10/12 03:42:03;;;;;;;6.70;5.57;;;;;;;3.49;100.00;102359.19;5082407;28;20048;-61
2022/10/12 03:44:28;;;;;;;9.67;5.23;;;;;;;3.45;100.00;102352.03;5072929;28;20035;-61
2022/10/12 03:46:53;;;;;;;10.67;5.60;;;;;;;3.41;100.00;102356.00;5067502;28;20149;-60
2022/10/12 03:49:19;;;;;;;9.13;5.60;;;;;;;3.40;100.00;102361.00;5066940;28;20024;-61
2022/10/12 03:51:44;;;;;;;8.27;6.37;;;;;;;3.36;100.00;102358.16;5086441;28;20075;-61
2022/10/12 03:54:09;;;;;;;8.13;5.73;;;;;;;3.35;100.00;102351.25;5087542;28;20118;-59
2022/10/12 03:56:34;;;;;;;8.50;5.50;;;;;;;3.31;100.00;102356.84;5072650;28;20500;-61
2022/10/12 03:59:00;;;;;;;7.53;5.93;;;;;;;3.32;100.00;102350.97;5078537;28;20043;-60
2022/10/12 04:01:25;;;;;;;7.90;5.83;;;;;;;3.30;100.00;102343.91;5066700;28;20025;-60
2022/10/12 04:03:50;;;;;;;7.07;5.73;;;;;;;3.29;100.00;102349.81;5067146;28;20012;-59
2022/10/12 04:06:16;;;;;;;11.40;6.60;;;;;;;3.27;100.00;102342.00;5067476;28;20393;-60
2022/10/12 04:08:42;;;;;;;12.87;6.13;;;;;;;3.27;100.00;102339.44;5071374;28;20023;-61
2022/10/12 04:11:07;;;;;;;10.17;5.83;;;;;;;3.26;100.00;102337.63;5075886;28;20037;-60
2022/10/12 04:13:33;;;;;;;8.07;5.60;;;;;;;3.25;100.00;102335.84;5066493;28;20028;-60
2022/10/12 04:16:05;;;;;;;8.53;5.90;;;;;;;3.23;100.00;102337.38;5067804;28;20461;-61
2022/10/12 04:18:32;;;;;;;8.77;6.10;;;;;;;3.23;100.00;102339.94;5066008;28;20089;-60
2022/10/12 04:20:58;;;;;;;10.07;5.77;;;;;;;3.20;100.00;102332.00;5066149;28;20024;-60
2022/10/12 04:23:23;;;;;;;9.43;5.73;;;;;;;3.18;100.00;102333.53;5067322;28;20024;-61
2022/10/12 04:25:49;;;;;;;7.37;5.50;;;;;;;3.18;100.00;102331.88;5066906;28;20058;-61
2022/10/12 04:28:14;;;;;;;8.93;5.90;;;;;;;3.19;100.00;102327.63;5067536;28;20035;-60
2022/10/12 04:30:39;;;;;;;7.47;6.63;;;;;;;3.21;100.00;102341.47;5064278;28;20464;-61
2022/10/12 04:33:05;;;;;;;9.90;6.27;;;;;;;3.19;100.00;102338.78;5067391;28;20017;-60
2022/10/12 04:35:30;;;;;;;9.40;6.10;;;;;;;3.19;100.00;102343.00;5064576;28;20039;-61
2022/10/12 04:37:56;;;;;;;9.07;6.13;;;;;;;3.17;100.00;102334.25;5067273;28;20036;-60
2022/10/12 04:40:21;;;;;;;9.13;6.90;;;;;;;3.16;100.00;102338.50;5065578;28;20115;-59
2022/10/12 04:42:47;;;;;;;10.47;6.30;;;;;;;3.15;100.00;102335.81;5076743;28;20134;-60
2022/10/12 04:45:12;;;;;;;8.83;6.80;;;;;;;3.10;100.00;102338.88;5085661;28;20593;-60
2022/10/12 04:47:38;;;;;;;11.30;6.57;;;;;;;3.08;100.00;102340.41;5050425;28;20021;-60
2022/10/12 04:50:03;;;;;;;14.37;7.43;;;;;;;3.06;100.00;102339.38;5050305;28;20480;-60
2022/10/12 04:52:29;;;;;;;11.03;6.47;;;;;;;3.02;100.00;102338.97;5057927;28;20039;-60
2022/10/12 04:54:54;;;;;;;7.73;6.37;;;;;;;3.02;100.00;102342.44;5064837;28;20099;-61
2022/10/12 04:57:19;;;;;;;9.07;6.30;;;;;;;3.02;100.00;102345.00;5064651;28;20040;-61
2022/10/12 04:59:44;;;;;;;9.83;6.80;;;;;;;3.02;100.00;102345.00;5064786;28;20021;-60
2022/10/12 05:02:10;;;;;;;9.80;6.60;;;;;;;3.01;100.00;102348.31;5064338;28;20031;-61
2022/10/12 05:04:35;;;;;;;9.67;6.63;;;;;;;2.99;100.00;102357.53;5069263;28;20113;-59
2022/10/12 05:07:00;;;;;;;10.80;6.57;;;;;;;2.98;100.00;102355.75;5074721;28;20024;-59
2022/10/12 05:09:26;;;;;;;10.77;7.80;;;;;;;2.98;100.00;102343.84;5063637;28;20506;-60
2022/10/12 05:11:51;;;;;;;12.27;6.87;;;;;;;2.98;100.00;102343.84;5066260;28;20035;-61
2022/10/12 05:14:16;;;;;;;11.17;7.23;;;;;;;2.97;100.00;102346.25;5069353;28;20039;-61
2022/10/12 05:16:41;;;;;;;10.40;7.53;;;;;;;2.96;100.00;102344.47;5062499;28;20020;-61
2022/10/12 05:19:07;;;;;;;8.07;6.80;;;;;;;2.94;100.00;102335.72;5070353;28;20486;-60
2022/10/12 05:21:32;;;;;;;9.37;7.33;;;;;;;2.92;100.00;102327.94;5069267;28;20031;-60
2022/10/12 05:23:58;;;;;;;7.37;6.43;;;;;;;2.86;100.00;102323.16;5069845;28;20013;-61
2022/10/12 05:26:23;;;;;;;10.73;7.30;;;;;;;2.83;100.00;102325.47;5069401;28;20491;-60
2022/10/12 05:28:48;;;;;;;6.80;6.10;;;;;;;2.80;100.00;102326.84;5073560;28;20029;-59
2022/10/12 05:31:13;;;;;;;13.10;7.13;;;;;;;2.72;100.00;102316.84;5081407;28;20468;-60
2022/10/12 05:33:39;;;;;;;10.47;7.30;;;;;;;2.72;100.00;102323.59;5071200;28;20024;-60
2022/10/12 05:36:04;;;;;;;9.10;7.10;;;;;;;2.67;100.00;102318.09;5068939;28;20027;-61
2022/10/12 05:38:29;;;;;;;12.40;7.87;;;;;;;2.66;100.00;102317.97;5049192;28;20074;-60
2022/10/12 05:40:55;;;;;;;9.00;7.23;;;;;;;2.61;100.00;102321.00;5072228;28;20031;-60
2022/10/12 05:43:20;;;;;;;9.67;7.73;;;;;;;2.63;100.00;102323.69;5068019;28;20477;-61
2022/10/12 05:45:46;;;;;;;11.23;7.20;;;;;;;2.62;100.00;102321.91;5059072;28;20063;-60
2022/10/12 05:48:12;;;;;;;14.30;8.47;;;;;;;2.59;100.00;102322.53;5057617;28;20123;-61
2022/10/12 05:50:37;;;;;;;10.47;7.90;;;;;;;2.63;100.00;102319.47;5063466;28;20112;-59
2022/10/12 05:53:02;;;;;;;13.77;7.07;;;;;;;2.64;100.00;102321.25;5066297;28;20040;-60
2022/10/12 05:55:28;;;;;;;13.50;7.83;;;;;;;2.66;100.00;102312.84;5066400;28;20040;-60
2022/10/12 05:57:53;;;;;;;11.83;8.20;;;;;;;2.71;100.00;102317.59;5068050;28;20039;-61
2022/10/12 06:00:18;;;;;;;14.50;7.93;;;;;;;2.72;100.00;102318.47;5068794;28;20024;-62
2022/10/12 06:02:44;;;;;;;11.53;7.40;;;;;;;2.74;100.00;102316.97;5069362;28;20114;-61
2022/10/12 06:05:09;;;;;;;8.93;6.87;;;;;;;2.79;100.00;102325.94;5069431;28;20117;-61
2022/10/12 06:07:34;;;;;;;11.63;7.70;;;;;;;2.81;100.00;102320.94;5080904;28;20052;-61
2022/10/12 06:10:00;;;;;;;8.70;6.80;;;;;;;2.80;100.00;102322.63;5075845;28;20073;-61
2022/10/12 06:12:26;;;;;;;7.53;6.57;;;;;;;2.81;100.00;102323.50;5070384;28;20645;-60
2022/10/12 06:14:52;;;;;;;9.17;7.13;;;;;;;2.82;100.00;102322.78;5063137;28;20029;-61
2022/10/12 06:17:17;;;;;;;10.57;7.60;;;;;;;2.83;100.00;102322.91;5066975;28;20054;-61
2022/10/12 06:19:42;;;;;;;9.23;6.87;;;;;;;2.83;100.00;102328.03;5067710;28;20393;-61
2022/10/12 06:22:08;;;;;;;12.10;7.47;;;;;;;2.89;100.00;102317.41;5067263;28;20496;-61
2022/10/12 06:24:33;;;;;;;8.23;7.43;;;;;;;2.93;100.00;102314.34;5063942;28;20451;-61
2022/10/12 06:26:58;;;;;;;11.33;7.57;;;;;;;2.99;100.00;102314.88;5071075;28;20454;-61
2022/10/12 06:29:24;;;;;;;11.90;8.20;;;;;;;3.00;100.00;102314.09;5071217;28;20032;-61
2022/10/12 06:31:50;;;;;;;11.03;7.57;;;;;;;3.00;100.00;102321.78;5077950;28;20037;-61
2022/10/12 06:34:15;;;;;;;12.60;8.30;;;;;;;3.06;100.00;102316.31;5066481;28;20427;-61
2022/10/12 06:36:40;;;;;;;11.93;7.47;;;;;;;3.10;100.00;102323.50;5077747;28;20069;-61
2022/10/12 06:39:06;;;;;;;9.27;7.63;;;;;;;3.15;100.00;102320.44;5067865;28;20436;-61
2022/10/12 06:41:31;;;;;;;8.50;6.80;;;;;;;3.19;100.00;102315.72;5069081;28;20695;-61
2022/10/12 06:43:57;;;;;;;9.20;6.90;;;;;;;3.24;100.00;102322.13;5066114;28;20037;-61
2022/10/12 06:46:22;;;;;;;11.07;6.80;;;;;;;3.28;100.00;102323.28;5067015;28;20031;-61
2022/10/12 06:48:48;;;;;;;10.83;7.37;;;;;;;3.30;100.00;102320.84;5065513;28;20024;-61
2022/10/12 06:51:13;;;;;;;12.07;7.17;;;;;;;3.35;100.00;102325.63;5065165;28;20036;-61
2022/10/12 06:53:38;;;;;;;9.13;7.33;;;;;;;3.40;100.00;102320.00;5067191;28;20502;-61
2022/10/12 06:56:05;;;;;;;9.27;7.73;;;;;;;3.46;100.00;102317.94;5064312;28;20028;-61
2022/10/12 06:58:30;;;;;;;8.93;8.03;;;;;;;3.56;100.00;102325.63;5059520;28;20059;-60
2022/10/12 07:00:56;;;;;;;10.87;7.87;;;;;;;3.64;100.00;102321.16;5063748;28;20048;-61
2022/10/12 07:03:21;;;;;;;15.37;8.60;;;;;;;3.69;100.00;102321.53;5055739;28;20013;-61
2022/10/12 07:05:46;;;;;;;8.70;7.80;;;;;;;3.79;100.00;102323.22;5057585;28;20130;-61
2022/10/12 07:08:11;;;;;;;16.57;9.17;;;;;;;3.84;100.00;102317.72;5077340;28;20020;-61
2022/10/12 07:10:37;;;;;;;14.53;9.87;;;;;;;3.90;100.00;102327.59;5073340;28;20024;-61
2022/10/12 07:13:02;;;;;;;16.30;10.03;;;;;;;3.95;100.00;102327.97;5068405;28;20033;-61
2022/10/12 07:15:27;;;;;;;14.13;10.50;;;;;;;4.00;100.00;102326.66;5071335;28;20120;-61
2022/10/12 07:17:53;;;;;;;15.40;10.27;;;;;;;4.04;100.00;102323.59;5072811;28;20105;-62
2022/10/12 07:20:18;;;;;;;16.30;10.43;;;;;;;4.07;100.00;102321.28;5068680;28;20095;-61
2022/10/12 07:22:43;;;;;;;14.73;10.27;;;;;;;4.11;100.00;102316.38;5058791;28;20019;-61
2022/10/12 07:25:09;;;;;;;13.57;10.57;;;;;;;4.17;100.00;102316.91;5057961;28;20429;-61
2022/10/12 07:27:34;;;;;;;16.73;11.00;;;;;;;4.19;100.00;102311.13;5068862;28;20017;-61
2022/10/12 07:30:00;;;;;;;15.77;10.13;;;;;;;4.24;100.00;102313.16;5061847;28;20362;-62
2022/10/12 07:32:25;;;;;;;19.43;10.77;;;;;;;4.27;100.00;102304.06;5049616;28;20037;-61
2022/10/12 07:34:50;;;;;;;18.27;11.23;;;;;;;4.33;100.00;102304.53;5053498;28;20017;-61
2022/10/12 07:37:16;;;;;;;15.23;11.00;;;;;;;4.37;100.00;102307.38;5061884;28;20115;-61
2022/10/12 07:39:42;;;;;;;16.60;11.10;;;;;;;4.42;100.00;102308.63;5066806;28;20472;-61
2022/10/12 07:42:07;;;;;;;17.47;10.80;;;;;;;4.46;100.00;102315.81;5057103;28;20561;-61
2022/10/12 07:44:33;;;;;;;16.07;10.97;;;;;;;4.50;100.00;102314.38;5065646;28;20024;-61
2022/10/12 07:46:58;;;;;;;17.67;11.43;;;;;;;4.53;100.00;102315.50;5062006;28;20100;-62
2022/10/12 07:49:24;;;;;;;16.83;11.90;;;;;;;4.56;100.00;102313.22;5060746;28;20044;-61
2022/10/12 07:51:49;;;;;;;17.37;12.90;;;;;;;4.61;100.00;102315.25;5058057;28;20079;-61
2022/10/12 07:54:14;;;;;;;18.90;11.87;;;;;;;4.67;100.00;102318.31;5058811;28;20094;-61
2022/10/12 07:56:40;;;;;;;17.03;12.77;;;;;;;4.74;100.00;102315.47;5057183;28;21362;-61
2022/10/12 07:59:06;;;;;;;16.27;11.90;;;;;;;4.90;100.00;102311.53;5061101;28;20020;-61
2022/10/12 08:01:31;;;;;;;16.93;12.57;;;;;;;5.12;100.00;102323.50;5065350;28;20043;-62
2022/10/12 08:03:58;;;;;;;17.20;13.43;;;;;;;5.50;100.00;102320.44;5066494;28;20032;-61
2022/10/12 08:06:26;;;;;;;19.53;14.00;;;;;;;6.18;100.00;102321.19;5059187;28;20017;-61
2022/10/12 08:08:51;;;;;;;16.83;11.80;;;;;;;6.74;100.00;102316.56;5062333;28;20020;-61
2022/10/12 08:11:18;;;;;;;17.20;11.97;;;;;;;7.15;100.00;102320.28;5057216;28;20028;-62
2022/10/12 08:13:44;;;;;;;18.42;11.50;;;;;;;7.67;100.00;102319.50;5057313;28;20059;-62
2022/10/12 08:16:13;;;;;;;18.35;11.77;;;;;;;8.05;100.00;102315.13;5063182;28;20028;-62
2022/10/12 08:18:38;;;;;;;16.48;11.00;;;;;;;8.29;100.00;102314.91;5075748;28;20032;-62
2022/10/12 08:21:06;;;;;;;16.13;11.98;;;;;;;8.34;100.00;102322.97;5057090;28;20033;-62
2022/10/12 08:23:33;;;;;;;16.33;12.18;;;;;;;8.32;100.00;102322.00;5066664;28;20201;-62
2022/10/12 08:25:59;;;;;;;17.00;11.70;;;;;;;8.29;100.00;102319.22;5066072;28;20465;-61
2022/10/12 08:28:24;;;;;;;18.85;11.63;;;;;;;8.30;100.00;102315.81;5053964;28;20075;-62
2022/10/12 08:30:50;;;;;;;21.23;13.05;;;;;;;8.27;100.00;102311.34;5058923;28;20032;-62
2022/10/12 08:33:16;;;;;;;18.65;13.65;;;;;;;8.34;100.00;102310.06;5059324;28;20128;-62
2022/10/12 08:35:43;;;;;;;19.77;13.82;;;;;;;8.38;100.00;102309.44;5070302;28;20054;-62
2022/10/12 08:38:10;;;;;;;23.40;14.68;;;;;;;8.50;100.00;102306.78;5059389;28;20035;-62
2022/10/12 08:40:45;;;;;;;25.35;13.93;;;;;;;8.65;100.00;102304.28;5058654;28;20124;-62
2022/10/12 08:43:25;;;;;;;20.67;13.77;;;;;;;8.93;100.00;102314.59;5053317;28;20540;-62
2022/10/12 08:45:57;;;;;;;18.83;13.55;;;;;;;9.39;100.00;102302.72;5058387;28;20495;-62
2022/10/12 08:48:37;;;;;;;18.95;13.70;;;;;;;9.78;100.00;102305.00;5056771;28;20078;-62
2022/10/12 08:51:10;;;;;;;28.43;12.20;;;;;;;10.17;100.00;102304.63;5080079;28;20107;-62
2022/10/12 08:54:06;;;;;;;19.65;12.15;;;;;;;10.48;100.00;102305.50;5058290;28;20773;-62
2022/10/12 08:56:34;;;;;;;16.75;12.35;;;;;;;10.55;100.00;102305.94;5056297;28;20025;-62
2022/10/12 08:59:01;;;;;;;14.07;11.55;;;;;;;10.63;100.00;102300.28;5070342;28;20020;-63
2022/10/12 09:01:36;;;;;;;18.10;12.43;;;;;;;10.63;100.00;102300.28;5062322;28;20036;-62
2022/10/12 09:04:38;;;;;;;17.63;11.55;;;;;;;10.64;100.00;102307.22;5069085;28;20111;-62
2022/10/12 09:07:13;;;;;;;18.60;12.63;;;;;;;10.70;100.00;102305.00;5058162;28;20111;-62
2022/10/12 09:09:38;;;;;;;16.35;12.52;;;;;;;10.67;100.00;102308.31;5061405;28;20703;-62
2022/10/12 09:12:22;;;;;;;20.80;12.13;;;;;;;10.68;100.00;102309.19;5072986;28;20037;-62
2022/10/12 09:14:51;;;;;;;17.67;11.52;;;;;;;10.77;100.00;102314.91;5063701;28;20524;-62
2022/10/12 09:17:37;;;;;;;15.50;11.77;;;;;;;10.79;100.00;102318.44;5069605;28;20025;-62
2022/10/12 09:20:27;;;;;;;17.60;12.25;;;;;;;10.74;100.00;102325.06;5069457;28;20072;-62
2022/10/12 09:23:23;;;;;;;18.88;12.40;;;;;;;10.67;100.00;102322.94;5046479;28;20400;-62
2022/10/12 09:25:49;;;;;;;17.70;12.45;;;;;;;10.60;100.00;102320.81;5053519;28;20064;-62
2022/10/12 09:28:21;;;;;;;20.27;13.35;;;;;;;10.50;100.00;102328.09;5070246;28;20525;-62
2022/10/12 09:31:14;;;;;;;16.35;11.95;;;;;;;10.47;100.00;102329.59;5071285;28;20059;-62
2022/10/12 09:33:47;;;;;;;20.75;13.18;;;;;;;10.42;100.00;102316.38;5058697;28;20466;-62
2022/10/12 09:36:17;;;;;;;18.40;12.95;;;;;;;10.44;100.00;102326.03;5058106;28;20033;-62
2022/10/12 09:38:43;;;;;;;21.48;12.43;;;;;;;10.49;100.00;102309.88;5051565;28;20056;-62
2022/10/12 09:41:19;;;;;;;18.73;12.43;;;;;;;10.53;100.00;102312.72;5061541;28;20096;-63
2022/10/12 09:43:45;;;;;;;17.88;12.65;;;;;;;10.57;100.00;102312.09;5066408;28;20029;-63
2022/10/12 09:46:14;;;;;;;17.00;12.50;;;;;;;10.61;100.00;102313.16;5076258;28;20361;-62
2022/10/12 09:48:56;;;;;;;17.65;13.00;;;;;;;10.66;100.00;102310.81;5074274;28;20789;-62
2022/10/12 09:51:22;;;;;;;15.77;11.35;;;;;;;10.67;100.00;102303.13;5058353;28;20029;-62
2022/10/12 09:53:48;;;;;;;21.65;12.25;;;;;;;10.68;99.42;102306.59;5053892;28;20052;-62
2022/10/12 09:56:29;;;;;;;20.20;13.13;;;;;;;10.71;100.00;102304.19;5062696;28;20024;-62
2022/10/12 09:59:03;;;;;;;16.92;12.07;;;;;;;10.75;98.51;102306.13;5062552;28;20016;-62
2022/10/12 10:01:31;;;;;;;22.42;14.32;;;;;;;10.76;98.75;102307.91;5067388;28;20482;-62
2022/10/12 10:04:07;;;;;;;14.35;12.05;;;;;;;10.81;98.78;102303.88;5065105;28;20051;-62
2022/10/12 10:06:34;;;;;;;16.00;12.27;;;;;;;10.84;98.81;102297.97;5053586;28;20268;-62
2022/10/12 10:08:59;;;;;;;20.45;12.80;;;;;;;10.86;96.76;102298.94;5069172;28;20396;-62
2022/10/12 10:11:28;;;;;;;18.60;12.82;;;;;;;10.91;97.64;102292.31;5068928;28;20025;-62
2022/10/12 10:13:54;;;;;;;16.35;12.93;;;;;;;10.97;97.84;102285.66;5067239;28;20032;-62
2022/10/12 10:16:23;;;;;;;16.23;11.77;;;;;;;11.03;98.80;102276.50;5057514;28;20025;-62
2022/10/12 10:19:00;;;;;;;17.88;11.77;;;;;;;11.08;99.98;102278.44;5079289;28;20080;-63
2022/10/12 10:21:31;;;;;;;17.17;12.38;;;;;;;11.12;99.34;102277.78;5058446;28;20016;-62
2022/10/12 10:23:59;;;;;;;18.05;12.00;;;;;;;11.17;97.02;102279.81;5072755;28;20107;-62
2022/10/12 10:26:26;;;;;;;18.65;11.95;;;;;;;11.25;96.03;102282.81;5072773;28;20518;-62
2022/10/12 10:29:14;;;;;;;15.00;11.30;;;;;;;11.35;95.98;102291.97;5058698;28;20457;-62
2022/10/12 10:31:39;;;;;;;14.82;11.80;;;;;;;11.44;96.57;102288.94;5072586;28;20474;-62
2022/10/12 10:34:18;;;;;;;22.40;11.25;;;;;;;11.53;95.04;102285.97;5068428;28;20055;-62
2022/10/12 10:36:46;;;;;;;16.00;10.40;;;;;;;11.61;95.28;102288.94;5068301;28;20030;-62
2022/10/12 10:39:17;;;;;;;12.85;9.80;;;;;;;11.68;96.10;102287.53;5068484;28;20029;-63
2022/10/12 10:41:43;;;;;;;14.70;11.70;;;;;;;11.71;94.53;102291.19;5080641;28;20052;-62
2022/10/12 10:44:31;;;;;;;16.67;11.77;;;;;;;11.74;95.35;102287.84;5069616;28;20108;-62
2022/10/12 10:47:01;;;;;;;18.88;10.95;;;;;;;11.76;91.47;102289.69;5080291;28;20476;-62
2022/10/12 10:49:29;;;;;;;13.15;10.70;;;;;;;11.86;91.24;102282.38;5071814;28;20016;-62
2022/10/12 10:51:57;;;;;;;16.08;11.30;;;;;;;11.98;92.60;102271.72;5074968;28;20028;-62
2022/10/12 10:54:22;;;;;;;13.63;10.18;;;;;;;12.11;92.66;102279.31;5061515;28;20025;-62
2022/10/12 10:56:55;;;;;;;17.92;11.00;;;;;;;12.30;93.95;102268.94;5056626;28;20516;-62
2022/10/12 10:59:33;;;;;;;16.65;10.50;;;;;;;12.43;93.18;102273.88;5060920;28;20051;-62
2022/10/12 11:02:08;;;;;;;15.55;10.70;;;;;;;12.49;88.79;102274.19;5062286;28;20028;-63
2022/10/12 11:04:48;;;;;;;18.17;9.90;;;;;;;12.60;88.33;102263.38;5066286;28;20089;-62
2022/10/12 11:07:37;;;;;;;18.20;10.05;;;;;;;12.73;89.35;102263.16;5055426;28;20064;-63
2022/10/12 11:10:16;;;;;;;14.75;8.60;;;;;;;12.85;87.00;102252.41;5066232;28;20098;-63
2022/10/12 11:12:45;;;;;;;17.48;9.32;;;;;;;12.98;84.56;102250.34;5066824;28;20028;-62
2022/10/12 11:15:22;;;;;;;13.75;8.07;;;;;;;13.19;83.70;102245.19;5050412;28;20447;-62
2022/10/12 11:17:53;;;;;;;14.45;7.45;;;;;;;13.36;81.82;102237.22;5065619;28;20058;-62
2022/10/12 11:20:49;;;;;;;16.40;8.65;;;;;;;13.41;80.21;102238.31;5083556;28;20188;-62
2022/10/12 11:23:23;;;;;;;10.25;7.55;;;;;;;13.61;81.30;102232.19;5064973;28;20031;-62
2022/10/12 11:26:04;;;;;;;11.43;8.15;;;;;;;13.68;80.11;102229.91;5062930;28;20447;-63